sensor_id;sensor_type;location;lat;lon;timestamp;temperature;humidity
5792;DHT22;2922;53.482;10.006;2024-03-23T00:55:32;7.20;99.90
5792;DHT22;2922;53.482;10.006;2024-03-23T00:57:57;7.20;99.90
5792;DHT22;2922;53.482;10.006;2024-03-23T01:00:23;7.20;99.90
5792;DHT22;2922;53.482;10.006;2024-03-23T01:02:48;7.20;99.90
5792;DHT22;2922;53.482;10.006;2024-03-23T01:05:14;7.20;99.90
5792;DHT22;2922;53.482;10.006;2024-03-23T01:07:39;7.20;99.90
5792;DHT22;2922;53.482;10.006;2024-03-23T01:10:05;7.10;99.90
5792;DHT22;2922;53.482;10.006;2024-03-23T01:12:31;7.10;99.90
5792;DHT22;2922;53.482;10.006;2024-03-23T01:14:56;7.10;99.90
5792;DHT22;2922;53.482;10.006;2024-03-23T01:17:22;7.10;99.90
5792;DHT22;2922;53.482;10.006;2024-03-23T01:19:47;7.10;99.90
5792;DHT22;2922;53.482;10.006;2024-03-23T01:22:13;7.10;99.90
5792;DHT22;2922;53.482;10.006;2024-03-23T01:24:38;7.10;99.90
5792;DHT22;2922;53.482;10.006;2024-03-23T01:27:04;7.10;99.90
5792;DHT22;2922;53.482;10.006;2024-03-23T01:29:30;7.00;99.90
5792;DHT22;2922;53.482;10.006;2024-03-23T01:31:55;7.00;99.90
5792;DHT22;2922;53.482;10.006;2024-03-23T01:34:21;7.00;99.90
5792;DHT22;2922;53.482;10.006;2024-03-23T01:36:47;7.00;99.90
5792;DHT22;2922;53.482;10.006;2024-03-23T01:39:13;7.00;99.90
5792;DHT22;2922;53.482;10.006;2024-03-23T01:41:39;7.00;99.90
5792;DHT22;2922;53.482;10.006;2024-03-23T01:44:07;7.00;99.90
5792;DHT22;2922;53.482;10.006;2024-03-23T01:46:42;7.00;99.90
5792;DHT22;2922;53.482;10.006;2024-03-23T01:49:08;6.90;99.90
5792;DHT22;2922;53.482;10.006;2024-03-23T01:51:34;6.90;99.90
5792;DHT22;2922;53.482;10.006;2024-03-23T01:54:02;6.90;99.90
5792;DHT22;2922;53.482;10.006;2024-03-23T01:56:32;6.90;99.90
5792;DHT22;2922;53.482;10.006;2024-03-23T01:59:03;6.90;99.90
5792;DHT22;2922;53.482;10.006;2024-03-23T02:01:29;6.90;99.90
5792;DHT22;2922;53.482;10.006;2024-03-23T02:03:55;6.90;99.90
5792;DHT22;2922;53.482;10.006;2024-03-23T02:06:21;6.90;99.90
5792;DHT22;2922;53.482;10.006;2024-03-23T02:08:47;6.90;99.90
5792;DHT22;2922;53.482;10.006;2024-03-23T02:11:13;6.80;99.90
5792;DHT22;2922;53.482;10.006;2024-03-23T02:13:39;6.80;99.90
5792;DHT22;2922;53.482;10.006;2024-03-23T02:16:05;6.80;99.90
5792;DHT22;2922;53.482;10.006;2024-03-23T02:18:31;6.80;99.90
5792;DHT22;2922;53.482;10.006;2024-03-23T02:20:56;6.80;99.90
5792;DHT22;2922;53.482;10.006;2024-03-23T02:23:22;6.80;99.90
5792;DHT22;2922;53.482;10.006;2024-03-23T02:25:52;6.70;99.90
5792;DHT22;2922;53.482;10.006;2024-03-23T02:28:21;6.70;99.90
5792;DHT22;2922;53.482;10.006;2024-03-23T02:30:48;6.70;99.90
5792;DHT22;2922;53.482;10.006;2024-03-23T02:33:14;6.70;99.90
5792;DHT22;2922;53.482;10.006;2024-03-23T02:35:40;6.70;99.90
5792;DHT22;2922;53.482;10.006;2024-03-23T02:38:05;6.70;99.90
5792;DHT22;2922;53.482;10.006;2024-03-23T02:40:31;6.70;99.90
5792;DHT22;2922;53.482;10.006;2024-03-23T02:42:56;6.70;99.90
5792;DHT22;2922;53.482;10.006;2024-03-23T02:45:22;6.60;99.90
5792;DHT22;2922;53.482;10.006;2024-03-23T02:47:47;6.60;99.90
5792;DHT22;2922;53.482;10.006;2024-03-23T02:50:18;6.60;99.90
5792;DHT22;2922;53.482;10.006;2024-03-23T02:52:43;6.60;99.90
5792;DHT22;2922;53.482;10.006;2024-03-23T02:55:09;6.60;99.90
5792;DHT22;2922;53.482;10.006;2024-03-23T02:57:34;6.60;99.90
5792;DHT22;2922;53.482;10.006;2024-03-23T03:00:00;6.60;99.90
5792;DHT22;2922;53.482;10.006;2024-03-23T03:02:25;6.50;99.90
5792;DHT22;2922;53.482;10.006;2024-03-23T03:04:51;6.50;99.90
5792;DHT22;2922;53.482;10.006;2024-03-23T03:07:17;6.50;99.90
5792;DHT22;2922;53.482;10.006;2024-03-23T03:09:42;6.50;99.90
5792;DHT22;2922;53.482;10.006;2024-03-23T03:12:08;6.50;99.90
5792;DHT22;2922;53.482;10.006;2024-03-23T03:14:34;6.50;99.90
5792;DHT22;2922;53.482;10.006;2024-03-23T03:17:00;6.50;99.90
5792;DHT22;2922;53.482;10.006;2024-03-23T03:19:25;6.50;99.90
5792;DHT22;2922;53.482;10.006;2024-03-23T03:21:51;6.50;99.90
5792;DHT22;2922;53.482;10.006;2024-03-23T03:24:16;6.50;99.90
5792;DHT22;2922;53.482;10.006;2024-03-23T03:26:42;6.50;99.90
5792;DHT22;2922;53.482;10.006;2024-03-23T03:29:08;6.50;99.90
5792;DHT22;2922;53.482;10.006;2024-03-23T03:31:34;6.40;99.90
5792;DHT22;2922;53.482;10.006;2024-03-23T03:34:00;6.40;99.90
5792;DHT22;2922;53.482;10.006;2024-03-23T03:36:25;6.40;99.90
5792;DHT22;2922;53.482;10.006;2024-03-23T03:38:51;6.50;99.90
5792;DHT22;2922;53.482;10.006;2024-03-23T03:41:17;6.40;99.90
5792;DHT22;2922;53.482;10.006;2024-03-23T03:43:42;6.40;99.90
5792;DHT22;2922;53.482;10.006;2024-03-23T03:46:08;6.40;99.90
5792;DHT22;2922;53.482;10.006;2024-03-23T03:48:34;6.40;99.90
5792;DHT22;2922;53.482;10.006;2024-03-23T03:51:00;6.40;99.90
5792;DHT22;2922;53.482;10.006;2024-03-23T03:53:25;6.40;99.90
5792;DHT22;2922;53.482;10.006;2024-03-23T03:55:51;6.40;99.90
5792;DHT22;2922;53.482;10.006;2024-03-23T03:58:17;6.40;99.90
5792;DHT22;2922;53.482;10.006;2024-03-23T04:00:42;6.40;99.90
5792;DHT22;2922;53.482;10.006;2024-03-23T04:03:08;6.30;99.90
5792;DHT22;2922;53.482;10.006;2024-03-23T04:05:33;6.30;99.90
5792;DHT22;2922;53.482;10.006;2024-03-23T04:07:59;6.30;99.90
5792;DHT22;2922;53.482;10.006;2024-03-23T04:10:24;6.30;99.90
5792;DHT22;2922;53.482;10.006;2024-03-23T04:12:50;6.30;99.90
5792;DHT22;2922;53.482;10.006;2024-03-23T04:15:16;6.30;99.90
5792;DHT22;2922;53.482;10.006;2024-03-23T04:17:41;6.30;99.90
5792;DHT22;2922;53.482;10.006;2024-03-23T04:20:08;6.30;99.90
5792;DHT22;2922;53.482;10.006;2024-03-23T04:22:37;6.30;99.90
5792;DHT22;2922;53.482;10.006;2024-03-23T04:25:03;6.30;99.90
5792;DHT22;2922;53.482;10.006;2024-03-23T04:27:32;6.30;99.90
5792;DHT22;2922;53.482;10.006;2024-03-23T04:29:58;6.30;99.90
5792;DHT22;2922;53.482;10.006;2024-03-23T04:32:23;6.30;99.90
5792;DHT22;2922;53.482;10.006;2024-03-23T04:34:49;6.30;99.90
5792;DHT22;2922;53.482;10.006;2024-03-23T04:37:14;6.30;99.90
5792;DHT22;2922;53.482;10.006;2024-03-23T04:39:41;6.30;99.90
5792;DHT22;2922;53.482;10.006;2024-03-23T04:42:07;6.30;99.90
5792;DHT22;2922;53.482;10.006;2024-03-23T04:44:32;6.30;99.90
5792;DHT22;2922;53.482;10.006;2024-03-23T04:46:58;6.20;99.90
5792;DHT22;2922;53.482;10.006;2024-03-23T04:49:24;6.20;99.90
5792;DHT22;2922;53.482;10.006;2024-03-23T04:51:49;6.20;99.90
5792;DHT22;2922;53.482;10.006;2024-03-23T04:54:15;6.20;99.90
5792;DHT22;2922;53.482;10.006;2024-03-23T04:56:40;6.20;99.90
5792;DHT22;2922;53.482;10.006;2024-03-23T04:59:06;6.20;99.90
5792;DHT22;2922;53.482;10.006;2024-03-23T05:01:32;6.20;99.90
5792;DHT22;2922;53.482;10.006;2024-03-23T05:03:58;6.20;99.90
5792;DHT22;2922;53.482;10.006;2024-03-23T05:06:24;6.20;99.90
5792;DHT22;2922;53.482;10.006;2024-03-23T05:08:51;6.20;99.90
5792;DHT22;2922;53.482;10.006;2024-03-23T05:11:16;6.20;99.90
5792;DHT22;2922;53.482;10.006;2024-03-23T05:13:42;6.20;99.90
5792;DHT22;2922;53.482;10.006;2024-03-23T05:16:08;6.20;99.90
5792;DHT22;2922;53.482;10.006;2024-03-23T05:18:34;6.20;99.90
5792;DHT22;2922;53.482;10.006;2024-03-23T05:21:00;6.20;99.90
5792;DHT22;2922;53.482;10.006;2024-03-23T05:23:26;6.20;99.90
5792;DHT22;2922;53.482;10.006;2024-03-23T05:25:52;6.20;99.90
5792;DHT22;2922;53.482;10.006;2024-03-23T05:28:18;6.20;99.90
5792;DHT22;2922;53.482;10.006;2024-03-23T05:30:49;6.10;99.90
5792;DHT22;2922;53.482;10.006;2024-03-23T05:33:15;6.10;99.90
5792;DHT22;2922;53.482;10.006;2024-03-23T05:35:40;6.10;99.90
5792;DHT22;2922;53.482;10.006;2024-03-23T05:38:06;6.20;99.90
5792;DHT22;2922;53.482;10.006;2024-03-23T05:40:31;6.20;99.90
5792;DHT22;2922;53.482;10.006;2024-03-23T05:42:57;6.20;99.90
5792;DHT22;2922;53.482;10.006;2024-03-23T05:45:23;6.20;99.90
5792;DHT22;2922;53.482;10.006;2024-03-23T05:47:48;6.20;99.90
5792;DHT22;2922;53.482;10.006;2024-03-23T05:50:14;6.20;99.90
5792;DHT22;2922;53.482;10.006;2024-03-23T05:52:40;6.20;99.90
5792;DHT22;2922;53.482;10.006;2024-03-23T05:55:06;6.20;99.90
5792;DHT22;2922;53.482;10.006;2024-03-23T05:57:31;6.20;99.90
5792;DHT22;2922;53.482;10.006;2024-03-23T05:59:57;6.20;99.90
5792;DHT22;2922;53.482;10.006;2024-03-23T06:02:23;6.20;99.90
5792;DHT22;2922;53.482;10.006;2024-03-23T06:04:49;6.20;99.90
5792;DHT22;2922;53.482;10.006;2024-03-23T06:07:15;6.20;99.90
5792;DHT22;2922;53.482;10.006;2024-03-23T06:09:41;6.20;99.90
5792;DHT22;2922;53.482;10.006;2024-03-23T06:12:07;6.30;99.90
5792;DHT22;2922;53.482;10.006;2024-03-23T06:14:33;6.30;99.90
5792;DHT22;2922;53.482;10.006;2024-03-23T06:17:00;6.30;99.90
5792;DHT22;2922;53.482;10.006;2024-03-23T06:19:25;6.30;99.90
5792;DHT22;2922;53.482;10.006;2024-03-23T06:21:54;6.30;99.90
5792;DHT22;2922;53.482;10.006;2024-03-23T06:24:23;6.40;99.90
5792;DHT22;2922;53.482;10.006;2024-03-23T06:26:49;6.40;99.90
5792;DHT22;2922;53.482;10.006;2024-03-23T06:29:16;6.40;99.90
5792;DHT22;2922;53.482;10.006;2024-03-23T06:31:42;6.40;99.90
5792;DHT22;2922;53.482;10.006;2024-03-23T06:34:07;6.40;99.90
5792;DHT22;2922;53.482;10.006;2024-03-23T06:36:33;6.50;99.90
5792;DHT22;2922;53.482;10.006;2024-03-23T06:38:58;6.50;99.90
5792;DHT22;2922;53.482;10.006;2024-03-23T06:41:24;6.50;99.90
5792;DHT22;2922;53.482;10.006;2024-03-23T06:43:50;6.60;99.90
5792;DHT22;2922;53.482;10.006;2024-03-23T06:46:16;6.60;99.90
5792;DHT22;2922;53.482;10.006;2024-03-23T06:48:41;6.70;99.90
5792;DHT22;2922;53.482;10.006;2024-03-23T06:51:07;6.70;99.90
5792;DHT22;2922;53.482;10.006;2024-03-23T06:53:34;6.70;99.90
5792;DHT22;2922;53.482;10.006;2024-03-23T06:55:59;6.80;99.90
5792;DHT22;2922;53.482;10.006;2024-03-23T06:58:26;6.90;99.90
5792;DHT22;2922;53.482;10.006;2024-03-23T07:00:51;6.90;99.90
5792;DHT22;2922;53.482;10.006;2024-03-23T07:03:17;6.90;99.90
5792;DHT22;2922;53.482;10.006;2024-03-23T07:05:43;6.90;99.90
5792;DHT22;2922;53.482;10.006;2024-03-23T07:08:09;6.90;99.90
5792;DHT22;2922;53.482;10.006;2024-03-23T07:10:34;6.90;99.90
5792;DHT22;2922;53.482;10.006;2024-03-23T07:13:01;6.90;99.90
5792;DHT22;2922;53.482;10.006;2024-03-23T07:15:26;6.90;99.90
5792;DHT22;2922;53.482;10.006;2024-03-23T07:17:52;6.90;99.90
5792;DHT22;2922;53.482;10.006;2024-03-23T07:20:17;6.90;99.90
5792;DHT22;2922;53.482;10.006;2024-03-23T07:22:45;7.00;99.90
5792;DHT22;2922;53.482;10.006;2024-03-23T10:00:32;10.40;99.90
5792;DHT22;2922;53.482;10.006;2024-03-23T10:02:59;10.10;99.90
5792;DHT22;2922;53.482;10.006;2024-03-23T10:05:28;10.10;99.90
5792;DHT22;2922;53.482;10.006;2024-03-23T10:07:54;10.30;99.90
5792;DHT22;2922;53.482;10.006;2024-03-23T10:10:19;10.30;99.90
5792;DHT22;2922;53.482;10.006;2024-03-23T10:12:47;10.30;99.90
5792;DHT22;2922;53.482;10.006;2024-03-23T10:15:20;10.30;99.90
5792;DHT22;2922;53.482;10.006;2024-03-23T10:17:46;10.20;99.90
5792;DHT22;2922;53.482;10.006;2024-03-23T10:20:12;10.30;99.90
5792;DHT22;2922;53.482;10.006;2024-03-23T10:22:38;10.20;99.90
5792;DHT22;2922;53.482;10.006;2024-03-23T10:25:08;10.20;99.90
5792;DHT22;2922;53.482;10.006;2024-03-23T10:27:34;10.70;99.90
5792;DHT22;2922;53.482;10.006;2024-03-23T10:30:11;11.10;99.90
5792;DHT22;2922;53.482;10.006;2024-03-23T10:32:38;11.40;99.90
5792;DHT22;2922;53.482;10.006;2024-03-23T10:35:22;11.70;99.90
5792;DHT22;2922;53.482;10.006;2024-03-23T10:37:48;11.60;99.90
5792;DHT22;2922;53.482;10.006;2024-03-23T10:40:17;11.40;99.90
5792;DHT22;2922;53.482;10.006;2024-03-23T10:42:44;11.50;99.90
5792;DHT22;2922;53.482;10.006;2024-03-23T10:45:10;11.60;99.90
5792;DHT22;2922;53.482;10.006;2024-03-23T10:47:37;11.40;99.90
5792;DHT22;2922;53.482;10.006;2024-03-23T10:50:06;11.70;99.90
5792;DHT22;2922;53.482;10.006;2024-03-23T10:52:35;11.50;99.90
5792;DHT22;2922;53.482;10.006;2024-03-23T10:55:04;11.40;99.90
5792;DHT22;2922;53.482;10.006;2024-03-23T10:57:37;11.20;99.90
5792;DHT22;2922;53.482;10.006;2024-03-23T11:00:05;10.80;99.90
5792;DHT22;2922;53.482;10.006;2024-03-23T11:02:31;10.70;99.90
5792;DHT22;2922;53.482;10.006;2024-03-23T11:04:57;10.30;99.90
5792;DHT22;2922;53.482;10.006;2024-03-23T11:07:32;10.10;99.90
5792;DHT22;2922;53.482;10.006;2024-03-23T11:09:59;9.70;99.90
5792;DHT22;2922;53.482;10.006;2024-03-23T11:12:26;9.50;99.90
5792;DHT22;2922;53.482;10.006;2024-03-23T11:15:05;9.50;99.90
5792;DHT22;2922;53.482;10.006;2024-03-23T11:17:35;9.70;99.90
5792;DHT22;2922;53.482;10.006;2024-03-23T11:20:08;9.90;99.90
5792;DHT22;2922;53.482;10.006;2024-03-23T11:25:20;10.40;99.90
5792;DHT22;2922;53.482;10.006;2024-03-23T11:27:52;10.70;99.90
5792;DHT22;2922;53.482;10.006;2024-03-23T11:30:21;11.00;99.90
5792;DHT22;2922;53.482;10.006;2024-03-23T11:32:52;11.20;99.90
5792;DHT22;2922;53.482;10.006;2024-03-23T11:35:33;11.30;99.90
5792;DHT22;2922;53.482;10.006;2024-03-23T11:40:31;11.30;99.90
5792;DHT22;2922;53.482;10.006;2024-03-23T11:43:02;10.90;99.90
5792;DHT22;2922;53.482;10.006;2024-03-23T11:45:29;10.70;99.90
5792;DHT22;2922;53.482;10.006;2024-03-23T11:50:36;10.30;99.90
5792;DHT22;2922;53.482;10.006;2024-03-23T11:53:21;10.00;99.90
5792;DHT22;2922;53.482;10.006;2024-03-23T11:55:50;9.80;99.90
5792;DHT22;2922;53.482;10.006;2024-03-23T11:58:20;9.90;99.90
5792;DHT22;2922;53.482;10.006;2024-03-23T12:00:55;10.10;99.90
5792;DHT22;2922;53.482;10.006;2024-03-23T12:03:21;10.50;99.90
5792;DHT22;2922;53.482;10.006;2024-03-23T12:05:50;10.70;99.90
5792;DHT22;2922;53.482;10.006;2024-03-23T12:08:25;11.00;99.90
5792;DHT22;2922;53.482;10.006;2024-03-23T12:11:07;11.20;99.90
5792;DHT22;2922;53.482;10.006;2024-03-23T12:13:34;11.40;99.90
5792;DHT22;2922;53.482;10.006;2024-03-23T12:16:19;11.40;99.90
5792;DHT22;2922;53.482;10.006;2024-03-23T12:18:49;11.50;99.90
5792;DHT22;2922;53.482;10.006;2024-03-23T12:21:15;11.30;99.90
5792;DHT22;2922;53.482;10.006;2024-03-23T12:23:42;11.20;99.90
5792;DHT22;2922;53.482;10.006;2024-03-23T12:26:10;11.20;99.90
5792;DHT22;2922;53.482;10.006;2024-03-23T12:28:37;11.10;99.90
5792;DHT22;2922;53.482;10.006;2024-03-23T12:31:03;10.90;99.90
5792;DHT22;2922;53.482;10.006;2024-03-23T12:33:28;11.00;99.90
5792;DHT22;2922;53.482;10.006;2024-03-23T12:35:54;11.00;99.90
5792;DHT22;2922;53.482;10.006;2024-03-23T12:38:19;11.00;99.90
5792;DHT22;2922;53.482;10.006;2024-03-23T12:40:49;10.90;99.90
5792;DHT22;2922;53.482;10.006;2024-03-23T12:43:15;11.10;99.90
5792;DHT22;2922;53.482;10.006;2024-03-23T12:45:40;11.00;99.90
5792;DHT22;2922;53.482;10.006;2024-03-23T12:48:06;10.10;99.90
5792;DHT22;2922;53.482;10.006;2024-03-23T12:50:32;9.60;99.90
5792;DHT22;2922;53.482;10.006;2024-03-23T12:52:58;9.30;99.90
5792;DHT22;2922;53.482;10.006;2024-03-23T12:55:23;8.90;99.90
5792;DHT22;2922;53.482;10.006;2024-03-23T12:57:49;8.60;99.90
5792;DHT22;2922;53.482;10.006;2024-03-23T13:00:15;8.50;99.90
5792;DHT22;2922;53.482;10.006;2024-03-23T13:02:44;8.30;99.90
5792;DHT22;2922;53.482;10.006;2024-03-23T13:05:10;8.20;99.90
5792;DHT22;2922;53.482;10.006;2024-03-23T13:07:35;7.70;99.90
5792;DHT22;2922;53.482;10.006;2024-03-23T13:10:03;7.50;99.90
5792;DHT22;2922;53.482;10.006;2024-03-23T13:12:29;7.50;99.90
5792;DHT22;2922;53.482;10.006;2024-03-23T13:14:54;7.60;99.90
5792;DHT22;2922;53.482;10.006;2024-03-23T13:17:20;7.70;99.90
5792;DHT22;2922;53.482;10.006;2024-03-23T13:19:45;7.90;99.90
5792;DHT22;2922;53.482;10.006;2024-03-23T13:22:12;7.90;99.90
5792;DHT22;2922;53.482;10.006;2024-03-23T13:24:38;7.60;99.90
5792;DHT22;2922;53.482;10.006;2024-03-23T13:27:04;7.60;99.90
5792;DHT22;2922;53.482;10.006;2024-03-23T13:29:33;7.40;99.90
5792;DHT22;2922;53.482;10.006;2024-03-23T13:31:59;7.20;99.90
5792;DHT22;2922;53.482;10.006;2024-03-23T13:34:25;7.20;99.90
5792;DHT22;2922;53.482;10.006;2024-03-23T13:36:51;7.20;99.90
5792;DHT22;2922;53.482;10.006;2024-03-23T13:39:17;7.20;99.90
5792;DHT22;2922;53.482;10.006;2024-03-23T13:41:46;7.40;99.90
5792;DHT22;2922;53.482;10.006;2024-03-23T13:44:12;7.60;99.90
5792;DHT22;2922;53.482;10.006;2024-03-23T13:46:39;7.80;99.90
5792;DHT22;2922;53.482;10.006;2024-03-23T13:49:05;7.80;99.90
5792;DHT22;2922;53.482;10.006;2024-03-23T13:51:31;7.80;99.90
5792;DHT22;2922;53.482;10.006;2024-03-23T13:53:57;7.80;99.90
5792;DHT22;2922;53.482;10.006;2024-03-23T13:56:26;7.90;99.90
5792;DHT22;2922;53.482;10.006;2024-03-23T13:58:51;7.90;99.90
5792;DHT22;2922;53.482;10.006;2024-03-23T14:01:17;8.00;99.90
5792;DHT22;2922;53.482;10.006;2024-03-23T14:03:43;8.10;99.90
5792;DHT22;2922;53.482;10.006;2024-03-23T14:06:09;8.20;99.90
5792;DHT22;2922;53.482;10.006;2024-03-23T14:08:36;8.30;99.90
5792;DHT22;2922;53.482;10.006;2024-03-23T14:11:05;8.60;99.90
5792;DHT22;2922;53.482;10.006;2024-03-23T14:13:31;8.70;99.90
5792;DHT22;2922;53.482;10.006;2024-03-23T14:15:57;8.80;99.90
5792;DHT22;2922;53.482;10.006;2024-03-23T14:18:22;8.90;99.90
5792;DHT22;2922;53.482;10.006;2024-03-23T14:20:49;8.90;99.90
5792;DHT22;2922;53.482;10.006;2024-03-23T14:23:15;8.90;99.90
5792;DHT22;2922;53.482;10.006;2024-03-23T14:25:40;8.90;99.90
5792;DHT22;2922;53.482;10.006;2024-03-23T14:28:06;9.10;99.90
5792;DHT22;2922;53.482;10.006;2024-03-23T14:30:33;9.10;99.90
5792;DHT22;2922;53.482;10.006;2024-03-23T14:32:59;9.10;99.90
5792;DHT22;2922;53.482;10.006;2024-03-23T14:35:24;9.10;99.90
5792;DHT22;2922;53.482;10.006;2024-03-23T14:37:52;9.10;99.90
5792;DHT22;2922;53.482;10.006;2024-03-23T14:40:18;9.10;99.90
5792;DHT22;2922;53.482;10.006;2024-03-23T14:42:44;9.20;99.90
5792;DHT22;2922;53.482;10.006;2024-03-23T14:45:09;9.00;99.90
5792;DHT22;2922;53.482;10.006;2024-03-23T14:47:36;9.00;99.90
5792;DHT22;2922;53.482;10.006;2024-03-23T14:50:02;9.00;99.90
5792;DHT22;2922;53.482;10.006;2024-03-23T14:52:28;9.00;99.90
5792;DHT22;2922;53.482;10.006;2024-03-23T14:54:54;9.10;99.90
5792;DHT22;2922;53.482;10.006;2024-03-23T14:57:22;9.10;99.90
5792;DHT22;2922;53.482;10.006;2024-03-23T14:59:48;9.20;99.90
5792;DHT22;2922;53.482;10.006;2024-03-23T15:02:13;9.20;99.90
5792;DHT22;2922;53.482;10.006;2024-03-23T15:04:39;9.20;99.90
5792;DHT22;2922;53.482;10.006;2024-03-23T15:07:07;9.20;99.90
5792;DHT22;2922;53.482;10.006;2024-03-23T15:09:33;9.20;99.90
5792;DHT22;2922;53.482;10.006;2024-03-23T15:11:58;9.10;99.90
5792;DHT22;2922;53.482;10.006;2024-03-23T15:14:24;8.90;99.90
5792;DHT22;2922;53.482;10.006;2024-03-23T15:16:50;8.80;99.90
5792;DHT22;2922;53.482;10.006;2024-03-23T15:19:18;8.70;99.90
5792;DHT22;2922;53.482;10.006;2024-03-23T15:21:44;8.60;99.90
5792;DHT22;2922;53.482;10.006;2024-03-23T15:24:10;8.30;99.90
5792;DHT22;2922;53.482;10.006;2024-03-23T15:26:39;8.10;99.90
5792;DHT22;2922;53.482;10.006;2024-03-23T15:29:05;8.10;99.90
5792;DHT22;2922;53.482;10.006;2024-03-23T15:31:42;8.20;99.90
5792;DHT22;2922;53.482;10.006;2024-03-23T15:34:08;8.30;99.90
5792;DHT22;2922;53.482;10.006;2024-03-23T15:36:36;8.20;99.90
5792;DHT22;2922;53.482;10.006;2024-03-23T15:39:04;8.30;99.90
5792;DHT22;2922;53.482;10.006;2024-03-23T15:41:29;8.30;99.90
5792;DHT22;2922;53.482;10.006;2024-03-23T15:43:56;8.20;99.90
5792;DHT22;2922;53.482;10.006;2024-03-23T15:46:21;8.10;99.90
5792;DHT22;2922;53.482;10.006;2024-03-23T15:48:47;8.10;99.90
5792;DHT22;2922;53.482;10.006;2024-03-23T15:51:14;8.00;99.90
5792;DHT22;2922;53.482;10.006;2024-03-23T15:53:40;8.00;99.90
5792;DHT22;2922;53.482;10.006;2024-03-23T15:56:05;7.90;99.90
5792;DHT22;2922;53.482;10.006;2024-03-23T15:58:32;7.80;99.90
5792;DHT22;2922;53.482;10.006;2024-03-23T16:00:58;7.70;99.90
5792;DHT22;2922;53.482;10.006;2024-03-23T16:03:24;7.70;99.90
5792;DHT22;2922;53.482;10.006;2024-03-23T16:05:59;7.60;99.90
5792;DHT22;2922;53.482;10.006;2024-03-23T16:08:25;7.60;99.90
5792;DHT22;2922;53.482;10.006;2024-03-23T16:10:52;7.60;99.90
5792;DHT22;2922;53.482;10.006;2024-03-23T16:15:55;7.60;99.90
5792;DHT22;2922;53.482;10.006;2024-03-23T16:18:21;7.50;99.90
5792;DHT22;2922;53.482;10.006;2024-03-23T16:23:18;7.40;99.90
5792;DHT22;2922;53.482;10.006;2024-03-23T16:25:48;7.30;99.90
5792;DHT22;2922;53.482;10.006;2024-03-23T16:28:26;7.20;99.90
5792;DHT22;2922;53.482;10.006;2024-03-23T16:30:57;7.10;99.90
5792;DHT22;2922;53.482;10.006;2024-03-23T16:33:23;7.00;99.90
5792;DHT22;2922;53.482;10.006;2024-03-23T16:36:02;6.90;99.90
5792;DHT22;2922;53.482;10.006;2024-03-23T16:38:35;7.00;99.90
5792;DHT22;2922;53.482;10.006;2024-03-23T16:41:11;7.00;99.90
5792;DHT22;2922;53.482;10.006;2024-03-23T16:43:43;7.10;99.90
5792;DHT22;2922;53.482;10.006;2024-03-23T16:46:10;7.10;99.90
5792;DHT22;2922;53.482;10.006;2024-03-23T16:48:37;7.20;99.90
5792;DHT22;2922;53.482;10.006;2024-03-23T16:51:04;7.20;99.90
5792;DHT22;2922;53.482;10.006;2024-03-23T16:53:30;7.20;99.90
5792;DHT22;2922;53.482;10.006;2024-03-23T16:55:57;7.10;99.90
5792;DHT22;2922;53.482;10.006;2024-03-23T16:58:26;7.10;99.90
5792;DHT22;2922;53.482;10.006;2024-03-23T17:00:51;7.10;99.90
5792;DHT22;2922;53.482;10.006;2024-03-23T17:03:19;7.00;99.90
5792;DHT22;2922;53.482;10.006;2024-03-23T17:05:45;7.10;99.90
5792;DHT22;2922;53.482;10.006;2024-03-23T17:08:11;7.10;99.90
5792;DHT22;2922;53.482;10.006;2024-03-23T17:10:41;7.10;99.90
5792;DHT22;2922;53.482;10.006;2024-03-23T17:13:07;7.00;99.90
5792;DHT22;2922;53.482;10.006;2024-03-23T17:15:32;6.90;99.90
5792;DHT22;2922;53.482;10.006;2024-03-23T17:17:58;6.90;99.90
5792;DHT22;2922;53.482;10.006;2024-03-23T17:20:24;6.90;99.90
5792;DHT22;2922;53.482;10.006;2024-03-23T17:22:54;6.80;99.90
5792;DHT22;2922;53.482;10.006;2024-03-23T17:25:19;6.70;99.90
5792;DHT22;2922;53.482;10.006;2024-03-23T17:27:45;6.70;99.90
5792;DHT22;2922;53.482;10.006;2024-03-23T17:30:11;6.70;99.90
5792;DHT22;2922;53.482;10.006;2024-03-23T17:32:36;6.60;99.90
5792;DHT22;2922;53.482;10.006;2024-03-23T17:35:04;6.60;99.90
5792;DHT22;2922;53.482;10.006;2024-03-23T17:37:30;6.50;99.90
5792;DHT22;2922;53.482;10.006;2024-03-23T17:39:56;6.50;99.90
5792;DHT22;2922;53.482;10.006;2024-03-23T17:42:21;6.50;99.90
5792;DHT22;2922;53.482;10.006;2024-03-23T17:44:47;6.40;99.90
5792;DHT22;2922;53.482;10.006;2024-03-23T17:47:12;6.40;99.90
5792;DHT22;2922;53.482;10.006;2024-03-23T17:49:38;6.40;99.90
5792;DHT22;2922;53.482;10.006;2024-03-23T17:52:09;6.30;99.90
5792;DHT22;2922;53.482;10.006;2024-03-23T17:54:37;6.30;99.90
5792;DHT22;2922;53.482;10.006;2024-03-23T17:57:02;6.30;99.90
5792;DHT22;2922;53.482;10.006;2024-03-23T17:59:28;6.20;99.90
5792;DHT22;2922;53.482;10.006;2024-03-23T18:01:53;6.20;99.90
5792;DHT22;2922;53.482;10.006;2024-03-23T18:04:19;6.20;99.90
5792;DHT22;2922;53.482;10.006;2024-03-23T18:06:45;6.20;99.90
5792;DHT22;2922;53.482;10.006;2024-03-23T18:09:15;6.10;99.90
5792;DHT22;2922;53.482;10.006;2024-03-23T18:11:42;6.10;99.90
5792;DHT22;2922;53.482;10.006;2024-03-23T18:14:07;6.20;99.90
5792;DHT22;2922;53.482;10.006;2024-03-23T18:16:33;6.10;99.90
5792;DHT22;2922;53.482;10.006;2024-03-23T18:18:58;6.10;99.90
5792;DHT22;2922;53.482;10.006;2024-03-23T18:21:24;6.10;99.90
5792;DHT22;2922;53.482;10.006;2024-03-23T18:23:49;6.00;99.90
5792;DHT22;2922;53.482;10.006;2024-03-23T18:26:15;6.00;99.90
5792;DHT22;2922;53.482;10.006;2024-03-23T18:28:41;6.00;99.90
5792;DHT22;2922;53.482;10.006;2024-03-23T18:31:07;5.90;99.90
5792;DHT22;2922;53.482;10.006;2024-03-23T18:33:35;6.00;99.90
5792;DHT22;2922;53.482;10.006;2024-03-23T18:36:01;5.90;99.90
5792;DHT22;2922;53.482;10.006;2024-03-23T18:38:27;5.80;99.90
5792;DHT22;2922;53.482;10.006;2024-03-23T18:40:53;5.80;99.90
5792;DHT22;2922;53.482;10.006;2024-03-23T18:43:18;5.80;99.90
5792;DHT22;2922;53.482;10.006;2024-03-23T18:45:50;5.80;99.90
5792;DHT22;2922;53.482;10.006;2024-03-23T18:48:16;5.70;99.90
5792;DHT22;2922;53.482;10.006;2024-03-23T18:50:42;5.70;99.90
5792;DHT22;2922;53.482;10.006;2024-03-23T18:53:08;5.70;99.90
5792;DHT22;2922;53.482;10.006;2024-03-23T18:55:41;5.60;99.90
5792;DHT22;2922;53.482;10.006;2024-03-23T18:58:08;5.60;99.90
5792;DHT22;2922;53.482;10.006;2024-03-23T19:00:34;5.60;99.90
5792;DHT22;2922;53.482;10.006;2024-03-23T19:03:00;5.60;99.90
5792;DHT22;2922;53.482;10.006;2024-03-23T19:05:26;5.60;99.90
5792;DHT22;2922;53.482;10.006;2024-03-23T19:07:52;5.60;99.90
5792;DHT22;2922;53.482;10.006;2024-03-23T19:10:18;5.60;99.90
5792;DHT22;2922;53.482;10.006;2024-03-23T19:12:47;5.60;99.90
5792;DHT22;2922;53.482;10.006;2024-03-23T19:15:13;5.60;99.90
5792;DHT22;2922;53.482;10.006;2024-03-23T19:17:39;5.50;99.90
5792;DHT22;2922;53.482;10.006;2024-03-23T19:20:05;5.50;99.90
5792;DHT22;2922;53.482;10.006;2024-03-23T19:22:31;5.50;99.90
5792;DHT22;2922;53.482;10.006;2024-03-23T19:24:57;5.50;99.90
5792;DHT22;2922;53.482;10.006;2024-03-23T19:27:25;5.50;99.90
5792;DHT22;2922;53.482;10.006;2024-03-23T19:29:51;5.50;99.90
5792;DHT22;2922;53.482;10.006;2024-03-23T19:32:16;5.60;99.90
5792;DHT22;2922;53.482;10.006;2024-03-23T19:34:42;5.50;99.90
5792;DHT22;2922;53.482;10.006;2024-03-23T19:37:08;5.50;99.90
5792;DHT22;2922;53.482;10.006;2024-03-23T19:39:34;5.50;99.90